< < Back
Terminal Aerodrome Forecast


Current Version              Previous Versions:   1  2  3  4  5  6  7  8  9  

Terminal Aerodrome Forecast

919
FTUS44 KBMX 010533
TAFTCL
TAF
KTCL 010533Z 0106/0206 25006KT 1SM BR SCT100
     FM010700 33008G18KT 4SM SHRA VCTS BKN040CB OVC150
     FM010830 00000KT 1 1/2SM BR SCT010 BKN150
     FM011400 16003KT P6SM BKN100=



Latest METAR

020
SAUS70 KWBC 010900 RRP
MTRTCL
METAR KTCL 010853Z AUTO 14004KT 7SM -TSRA SCT055 BKN080 OVC110 15/14
A3004 RMK AO2 LTG DSNT NE AND E RAB11 TSB12 PRESFR SLP169
P0025 60026 T01500139 51002


USA.gov is the U.S. government's official web portal to all federal, state and local government web resources and services.